createdAt,value
2019-02-19T00:02:03.626Z,74.40
2019-02-19T00:04:32.922Z,74.40
2019-02-19T00:07:02.536Z,74.40
2019-02-19T00:09:31.936Z,74.50
2019-02-19T00:12:01.358Z,74.50
2019-02-19T00:14:30.821Z,74.40
2019-02-19T00:17:00.240Z,74.40
2019-02-19T00:19:29.967Z,74.40
2019-02-19T00:21:59.350Z,74.40
2019-02-19T00:24:28.777Z,74.40
2019-02-19T00:26:58.164Z,74.40
2019-02-19T00:29:27.580Z,74.50
2019-02-19T00:31:56.959Z,74.60
2019-02-19T00:34:26.400Z,74.60
2019-02-19T00:36:55.770Z,74.70
2019-02-19T00:39:25.167Z,74.70
2019-02-19T00:41:54.559Z,74.80
2019-02-19T00:44:23.942Z,74.90
2019-02-19T00:46:53.377Z,75.00
2019-02-19T00:49:22.758Z,75.10
2019-02-19T00:51:52.186Z,75.00
2019-02-19T00:54:21.563Z,75.00
2019-02-19T00:56:50.995Z,74.90
2019-02-19T00:59:20.399Z,75.00
2019-02-19T01:01:49.790Z,75.00
2019-02-19T01:04:19.196Z,75.00
2019-02-19T01:06:48.584Z,75.10
2019-02-19T01:09:18.500Z,75.10
2019-02-19T01:11:47.875Z,75.10
2019-02-19T01:14:17.567Z,75.10
2019-02-19T01:16:47.041Z,75.00
2019-02-19T01:19:16.387Z,75.00
2019-02-19T01:21:45.803Z,75.10
2019-02-19T01:24:15.172Z,75.30
2019-02-19T01:26:44.728Z,75.30
2019-02-19T01:29:14.128Z,75.30
2019-02-19T01:31:43.526Z,75.30
2019-02-19T01:34:12.923Z,75.20
2019-02-19T01:36:42.555Z,75.10
2019-02-19T01:39:11.974Z,75.00
2019-02-19T01:41:41.372Z,75.10
2019-02-19T01:44:10.783Z,75.30
2019-02-19T01:46:40.172Z,75.60
2019-02-19T01:49:09.835Z,75.70
2019-02-19T01:51:39.695Z,75.80
2019-02-19T01:54:09.123Z,75.60
2019-02-19T01:56:38.535Z,75.50
2019-02-19T01:59:07.940Z,76.00
2019-02-19T02:01:37.391Z,75.30
2019-02-19T02:04:06.778Z,75.30
2019-02-19T02:06:36.165Z,75.20
2019-02-19T02:09:05.852Z,75.20
2019-02-19T02:11:35.231Z,75.10
2019-02-19T02:14:04.647Z,75.10
2019-02-19T02:16:34.099Z,75.00
2019-02-19T02:19:03.500Z,75.00
2019-02-19T02:21:33.218Z,75.00
2019-02-19T02:24:02.595Z,74.90
2019-02-19T02:26:32.003Z,75.00
2019-02-19T02:29:01.323Z,74.90
2019-02-19T02:31:30.811Z,74.90
2019-02-19T02:34:00.204Z,74.90
2019-02-19T02:36:29.606Z,75.00
2019-02-19T02:38:59.028Z,75.70
2019-02-19T02:41:28.709Z,75.10
2019-02-19T02:43:58.147Z,75.10
2019-02-19T02:46:27.552Z,75.10
2019-02-19T02:48:56.931Z,75.20
2019-02-19T02:51:26.348Z,75.10
2019-02-19T02:53:55.747Z,75.10
2019-02-19T02:56:25.186Z,75.20
2019-02-19T02:58:54.560Z,75.20
2019-02-19T03:01:23.974Z,75.30
2019-02-19T03:03:53.368Z,75.30
2019-02-19T03:06:45.365Z,75.30
2019-02-19T03:09:14.747Z,75.30
2019-02-19T03:11:44.123Z,75.30
2019-02-19T03:14:13.533Z,75.20
2019-02-19T03:16:42.977Z,75.20
2019-02-19T03:19:12.412Z,75.20
2019-02-19T03:21:41.803Z,75.10
2019-02-19T03:24:11.216Z,75.10
2019-02-19T03:26:40.613Z,75.10
2019-02-19T03:29:09.993Z,75.10
2019-02-19T03:31:39.490Z,75.10
2019-02-19T03:34:08.791Z,75.00
2019-02-19T03:36:38.163Z,75.00
2019-02-19T03:39:07.868Z,75.00
2019-02-19T03:41:37.239Z,75.00
2019-02-19T03:44:06.658Z,75.00
2019-02-19T03:46:36.042Z,75.00
2019-02-19T03:49:05.423Z,75.00
2019-02-19T03:51:34.823Z,75.00
2019-02-19T03:54:04.204Z,75.20
2019-02-19T03:56:33.628Z,75.90
2019-02-19T03:59:03.024Z,75.30
2019-02-19T04:01:32.453Z,75.20
2019-02-19T04:04:01.948Z,75.10
2019-02-19T04:06:32.455Z,75.10
2019-02-19T04:09:01.827Z,75.10
2019-02-19T04:11:31.211Z,75.10
2019-02-19T04:14:00.592Z,75.10
2019-02-19T04:16:30.014Z,75.00
2019-02-19T04:18:59.406Z,75.70
2019-02-19T04:21:28.765Z,75.00
2019-02-19T04:23:58.176Z,75.00
2019-02-19T04:26:27.546Z,75.00
2019-02-19T04:28:56.965Z,75.00
2019-02-19T04:31:26.359Z,74.90
2019-02-19T04:33:55.768Z,75.00
2019-02-19T04:36:25.151Z,75.00
2019-02-19T04:38:54.536Z,75.00
2019-02-19T04:41:23.988Z,75.10
2019-02-19T04:43:53.316Z,75.10
2019-02-19T04:46:31.092Z,75.20
2019-02-19T04:48:54.104Z,75.20
2019-02-19T04:51:23.477Z,75.20
2019-02-19T04:53:52.866Z,75.20
2019-02-19T04:56:24.027Z,75.20
2019-02-19T04:58:53.778Z,75.20
2019-02-19T05:01:23.234Z,75.20
2019-02-19T05:03:52.558Z,75.90
2019-02-19T05:06:21.960Z,75.30
2019-02-19T05:08:51.362Z,75.30
2019-02-19T05:11:21.215Z,75.40
2019-02-19T05:13:50.589Z,75.40
2019-02-19T05:16:20.028Z,75.50
2019-02-19T05:18:49.460Z,75.40
2019-02-19T05:21:18.863Z,75.60
2019-02-19T05:23:48.256Z,75.60
2019-02-19T05:26:17.656Z,75.60
2019-02-19T05:28:47.104Z,75.80
2019-02-19T05:31:16.487Z,75.90
2019-02-19T05:33:45.881Z,75.90
2019-02-19T05:36:15.307Z,76.00
2019-02-19T05:38:44.693Z,76.10
2019-02-19T05:41:14.131Z,76.00
2019-02-19T05:43:43.511Z,76.00
2019-02-19T05:46:12.910Z,76.10
2019-02-19T05:48:42.349Z,76.00
2019-02-19T05:51:11.704Z,76.40
2019-02-19T05:53:41.194Z,76.20
2019-02-19T05:56:10.585Z,76.10
2019-02-19T05:58:39.963Z,76.10
2019-02-19T06:01:09.380Z,76.10
2019-02-19T06:03:38.769Z,76.20
2019-02-19T06:06:08.188Z,76.20
2019-02-19T06:08:37.572Z,76.30
2019-02-19T06:11:06.948Z,76.30
2019-02-19T06:13:36.381Z,76.40
2019-02-19T06:16:05.790Z,76.40
2019-02-19T06:18:35.251Z,76.60
2019-02-19T06:21:04.635Z,76.70
2019-02-19T06:23:34.015Z,76.70
2019-02-19T06:26:03.450Z,76.70
2019-02-19T06:28:32.845Z,76.60
2019-02-19T06:31:02.228Z,76.60
2019-02-19T06:33:31.643Z,76.90
2019-02-19T06:36:01.045Z,76.90
2019-02-19T06:38:30.464Z,76.90
2019-02-19T06:40:59.957Z,77.10
2019-02-19T06:43:29.355Z,77.20
2019-02-19T06:45:58.739Z,77.20
2019-02-19T06:48:28.039Z,77.00
2019-02-19T06:50:57.459Z,77.10
2019-02-19T06:53:26.843Z,77.30
2019-02-19T06:55:56.218Z,77.50
2019-02-19T06:58:25.619Z,77.70
2019-02-19T07:00:55.003Z,77.10
2019-02-19T07:03:31.467Z,76.30
2019-02-19T07:06:00.872Z,76.10
2019-02-19T07:08:30.621Z,75.70
2019-02-19T07:11:00.301Z,75.60
2019-02-19T07:13:29.675Z,75.60
2019-02-19T07:15:59.043Z,75.70
2019-02-19T07:18:28.454Z,75.70
2019-02-19T07:20:57.897Z,75.70
2019-02-19T07:23:27.272Z,75.60
2019-02-19T07:25:56.654Z,75.70
2019-02-19T07:28:26.084Z,75.70
2019-02-19T07:30:55.488Z,75.50
2019-02-19T07:33:24.873Z,75.50
2019-02-19T07:35:54.264Z,75.40
2019-02-19T07:38:23.652Z,75.30
2019-02-19T07:40:53.067Z,75.10
2019-02-19T07:43:22.462Z,75.00
2019-02-19T07:45:52.383Z,75.00
2019-02-19T07:48:21.752Z,74.90
2019-02-19T07:50:51.151Z,74.90
2019-02-19T07:53:20.563Z,74.70
2019-02-19T07:55:49.946Z,74.50
2019-02-19T07:58:19.378Z,74.20
2019-02-19T08:00:48.790Z,73.80
2019-02-19T08:03:18.211Z,73.40
2019-02-19T08:05:47.625Z,73.00
2019-02-19T08:08:17.011Z,72.50
2019-02-19T08:10:46.411Z,72.20
2019-02-19T08:13:15.844Z,71.70
2019-02-19T08:15:45.275Z,71.40
2019-02-19T08:18:14.731Z,71.20
2019-02-19T08:20:44.119Z,70.90
2019-02-19T08:23:13.528Z,70.60
2019-02-19T08:25:42.891Z,70.20
2019-02-19T08:28:12.323Z,70.00
2019-02-19T08:30:41.707Z,69.60
2019-02-19T08:33:11.092Z,69.40
2019-02-19T08:35:40.860Z,69.10
2019-02-19T08:38:10.251Z,69.00
2019-02-19T08:40:39.661Z,68.80
2019-02-19T08:43:09.059Z,68.30
2019-02-19T08:45:38.439Z,68.20
2019-02-19T08:48:07.871Z,68.00
2019-02-19T08:50:37.257Z,67.90
2019-02-19T08:53:06.663Z,67.60
2019-02-19T08:55:36.044Z,67.50
2019-02-19T08:58:05.444Z,67.20
2019-02-19T09:00:34.880Z,67.10
2019-02-19T09:03:04.267Z,67.00
2019-02-19T09:05:33.959Z,66.60
2019-02-19T09:08:03.737Z,66.50
2019-02-19T09:10:33.102Z,66.50
2019-02-19T09:13:02.521Z,66.40
2019-02-19T09:15:31.902Z,66.20
2019-02-19T09:18:01.325Z,66.00
2019-02-19T09:20:30.751Z,65.90
2019-02-19T09:23:00.119Z,65.70
2019-02-19T09:25:29.523Z,65.60
2019-02-19T09:27:58.900Z,65.50
2019-02-19T09:30:28.330Z,65.40
2019-02-19T09:32:57.723Z,65.10
2019-02-19T09:35:27.127Z,64.80
2019-02-19T09:37:56.505Z,64.50
2019-02-19T09:40:25.880Z,64.50
2019-02-19T09:42:56.060Z,64.60
2019-02-19T09:45:25.427Z,64.50
2019-02-19T09:48:00.939Z,64.30
2019-02-19T09:50:25.859Z,64.00
2019-02-19T09:53:00.042Z,63.90
2019-02-19T09:55:26.323Z,63.80
2019-02-19T09:57:55.702Z,63.40
2019-02-19T10:00:25.095Z,63.20
2019-02-19T10:02:54.467Z,63.00
2019-02-19T10:05:23.955Z,62.80
2019-02-19T10:07:53.725Z,62.60
2019-02-19T10:10:23.108Z,62.20
2019-02-19T10:12:52.491Z,61.90
2019-02-19T10:15:21.877Z,61.50
2019-02-19T10:17:51.305Z,61.20
2019-02-19T10:20:20.799Z,60.70
2019-02-19T10:22:50.453Z,60.20
2019-02-19T10:25:19.915Z,59.40
2019-02-19T10:27:49.646Z,58.60
2019-02-19T10:30:19.074Z,58.00
2019-02-19T10:32:48.475Z,57.30
2019-02-19T10:35:17.903Z,57.00
2019-02-19T10:37:47.356Z,56.50
2019-02-19T10:40:16.759Z,56.30
2019-02-19T10:42:46.195Z,56.00
2019-02-19T10:45:17.055Z,55.80
2019-02-19T10:47:46.455Z,55.70
2019-02-19T10:50:16.139Z,56.00
2019-02-19T10:52:45.534Z,55.80
2019-02-19T10:55:14.956Z,55.80
2019-02-19T10:57:44.358Z,55.80
2019-02-19T11:00:16.467Z,55.80
2019-02-19T11:02:45.851Z,55.70
2019-02-19T11:05:15.236Z,55.50
2019-02-19T11:07:44.684Z,55.40
2019-02-19T11:10:14.176Z,55.10
2019-02-19T11:12:43.600Z,55.00
2019-02-19T11:15:13.096Z,55.10
2019-02-19T11:17:42.527Z,55.10
2019-02-19T11:20:12.647Z,55.00
2019-02-19T11:22:42.095Z,54.90
2019-02-19T11:25:12.065Z,54.70
2019-02-19T11:27:41.757Z,54.70
2019-02-19T11:30:13.543Z,54.40
2019-02-19T11:32:42.939Z,54.60
2019-02-19T11:35:12.443Z,54.60
2019-02-19T11:37:41.848Z,54.70
2019-02-19T11:40:11.902Z,54.50
2019-02-19T11:42:41.294Z,54.60
2019-02-19T11:45:12.360Z,54.60
2019-02-19T11:47:41.767Z,54.40
2019-02-19T11:50:11.762Z,54.10
2019-02-19T11:52:41.154Z,53.90
2019-02-19T11:55:11.867Z,53.60
2019-02-19T11:57:41.243Z,53.20
2019-02-19T12:00:14.075Z,52.90
2019-02-19T12:02:43.464Z,52.50
2019-02-19T12:05:12.863Z,51.80
2019-02-19T12:07:42.395Z,51.50
2019-02-19T12:10:12.187Z,50.90
2019-02-19T12:12:41.629Z,50.40
2019-02-19T12:15:11.136Z,50.00
2019-02-19T12:17:40.843Z,50.30
2019-02-19T12:20:10.396Z,49.70
2019-02-19T12:22:39.853Z,49.50
2019-02-19T12:25:09.484Z,49.50
2019-02-19T12:27:39.250Z,49.70
2019-02-19T12:30:10.131Z,49.90
2019-02-19T12:32:39.533Z,50.00
2019-02-19T12:35:09.249Z,50.00
2019-02-19T12:37:38.632Z,50.20
2019-02-19T12:40:09.040Z,50.20
2019-02-19T12:42:38.427Z,50.50
2019-02-19T12:45:08.715Z,50.70
2019-02-19T12:47:38.115Z,50.90
2019-02-19T12:50:09.302Z,51.10
2019-02-19T12:52:38.746Z,51.20
2019-02-19T12:55:08.763Z,51.00
2019-02-19T12:57:38.272Z,50.90
2019-02-19T13:00:10.118Z,50.90
2019-02-19T13:02:39.515Z,51.00
2019-02-19T13:05:10.299Z,51.20
2019-02-19T13:07:39.683Z,51.50
2019-02-19T13:10:09.631Z,51.70
2019-02-19T13:12:39.027Z,51.80
2019-02-19T13:15:10.506Z,51.90
2019-02-19T13:17:40.231Z,52.50
2019-02-19T13:20:11.308Z,51.80
2019-02-19T13:22:40.719Z,51.80
2019-02-19T13:25:10.530Z,51.50
2019-02-19T13:27:39.956Z,51.20
2019-02-19T13:30:11.695Z,50.90
2019-02-19T13:32:41.126Z,50.80
2019-02-19T13:35:11.011Z,50.80
2019-02-19T13:37:40.702Z,51.00
2019-02-19T13:40:11.026Z,51.20
2019-02-19T13:42:40.409Z,51.50
2019-02-19T13:45:11.179Z,51.60
2019-02-19T13:47:40.564Z,51.60
2019-02-19T13:50:12.339Z,51.60
2019-02-19T13:52:47.181Z,51.50
2019-02-19T13:55:20.123Z,51.50
2019-02-19T13:57:49.521Z,51.40
2019-02-19T14:00:21.003Z,51.40
2019-02-19T14:02:50.425Z,51.70
2019-02-19T14:05:19.799Z,52.20
2019-02-19T14:07:49.223Z,52.50
2019-02-19T14:10:18.661Z,52.60
2019-02-19T14:12:48.075Z,52.70
2019-02-19T14:15:25.739Z,52.80
2019-02-19T14:17:55.078Z,52.80
2019-02-19T14:20:34.488Z,52.70
2019-02-19T14:23:21.472Z,52.50
2019-02-19T14:26:14.032Z,52.40
2019-02-19T14:29:14.511Z,52.30
2019-02-19T14:32:01.960Z,52.30
2019-02-19T14:34:50.308Z,52.50
2019-02-19T14:37:44.443Z,52.80
2019-02-19T14:40:27.759Z,53.00
2019-02-19T14:43:18.863Z,53.00
2019-02-19T14:46:16.656Z,53.30
2019-02-19T14:49:12.264Z,53.50
2019-02-19T14:51:54.167Z,53.80
2019-02-19T14:54:41.158Z,54.00
2019-02-19T14:57:41.428Z,54.00
2019-02-19T15:00:28.396Z,54.00
2019-02-19T15:03:15.199Z,54.50
2019-02-19T15:06:06.527Z,53.80
2019-02-19T15:09:09.758Z,53.80
2019-02-19T15:12:03.937Z,54.00
2019-02-19T15:14:56.815Z,54.20
2019-02-19T15:17:37.094Z,54.40
2019-02-19T15:20:29.410Z,54.50
2019-02-19T15:23:17.786Z,54.50
2019-02-19T15:26:06.166Z,54.50
2019-02-19T15:28:54.497Z,54.60
2019-02-19T15:31:42.852Z,54.70
2019-02-19T15:34:37.268Z,54.80
2019-02-19T15:37:24.009Z,55.00
2019-02-19T15:40:15.421Z,55.20
2019-02-19T15:43:06.791Z,55.50
2019-02-19T15:45:53.786Z,55.70
2019-02-19T15:48:51.271Z,55.90
2019-02-19T15:51:37.943Z,56.00
2019-02-19T15:54:21.001Z,56.20
2019-02-19T15:57:01.175Z,56.40
2019-02-19T15:59:52.213Z,56.60
2019-02-19T16:02:33.360Z,56.80
2019-02-19T16:05:20.335Z,57.00
2019-02-19T16:08:08.683Z,57.20
2019-02-19T16:10:46.519Z,57.40
2019-02-19T16:13:43.999Z,57.50
2019-02-19T16:16:32.369Z,57.60
2019-02-19T16:19:09.847Z,57.70
2019-02-19T16:22:04.244Z,57.70
2019-02-19T16:25:04.752Z,57.70
2019-02-19T16:27:42.916Z,57.90
2019-02-19T16:30:31.324Z,58.00
2019-02-19T16:33:07.989Z,58.20
2019-02-19T16:35:54.833Z,58.20
2019-02-19T16:38:46.191Z,58.40
2019-02-19T16:41:21.338Z,58.50
2019-02-19T16:44:08.084Z,58.70
2019-02-19T16:46:46.953Z,59.00
2019-02-19T16:49:35.307Z,59.60
2019-02-19T16:52:20.418Z,60.20
2019-02-19T16:54:56.991Z,60.90
2019-02-19T16:57:43.455Z,61.30
2019-02-19T17:00:31.834Z,61.90
2019-02-19T17:03:18.807Z,63.20
2019-02-19T17:06:15.470Z,62.80
2019-02-19T17:08:56.947Z,63.20
2019-02-19T17:11:36.955Z,63.80
2019-02-19T17:14:37.232Z,64.20
2019-02-19T17:17:24.224Z,64.70
2019-02-19T17:20:16.396Z,65.20
2019-02-19T17:22:56.087Z,65.40
2019-02-19T17:25:53.523Z,65.50
2019-02-19T17:28:41.896Z,65.70
2019-02-19T17:31:39.026Z,65.90
2019-02-19T17:34:42.564Z,66.10
2019-02-19T17:37:42.802Z,66.20
2019-02-19T17:40:24.148Z,66.30
2019-02-19T17:43:10.603Z,66.40
2019-02-19T17:46:08.117Z,66.30
2019-02-19T17:48:42.756Z,66.20
2019-02-19T17:51:19.181Z,66.20
2019-02-19T17:54:22.520Z,66.30
2019-02-19T17:57:03.976Z,66.20
2019-02-19T17:59:46.140Z,66.10
2019-02-19T18:02:34.484Z,66.00
2019-02-19T18:05:19.533Z,66.10
2019-02-19T18:08:06.703Z,66.00
2019-02-19T18:10:48.601Z,66.30
2019-02-19T18:13:41.192Z,66.50
2019-02-19T18:16:44.718Z,66.60
2019-02-19T18:19:14.445Z,66.70
2019-02-19T18:21:43.853Z,66.50
2019-02-19T18:24:13.324Z,66.40
2019-02-19T18:26:44.700Z,66.50
2019-02-19T18:29:13.794Z,66.60
2019-02-19T18:31:43.195Z,66.50
2019-02-19T18:34:12.563Z,66.60
2019-02-19T18:36:41.983Z,66.70
2019-02-19T18:39:11.402Z,66.80
2019-02-19T18:41:40.839Z,67.10
2019-02-19T18:44:10.213Z,67.20
2019-02-19T18:46:39.624Z,67.20
2019-02-19T18:49:09.952Z,67.20
2019-02-19T18:51:39.507Z,67.20
2019-02-19T18:54:08.951Z,67.60
2019-02-19T18:56:38.354Z,67.90
2019-02-19T18:59:07.777Z,68.10
2019-02-19T19:01:37.200Z,68.40
2019-02-19T19:04:06.592Z,68.30
2019-02-19T19:06:35.983Z,68.50
2019-02-19T19:09:07.120Z,68.50
2019-02-19T19:11:36.507Z,68.50
2019-02-19T19:14:05.885Z,68.50
2019-02-19T19:16:35.331Z,68.50
2019-02-19T19:19:04.730Z,68.60
2019-02-19T19:21:34.138Z,68.50
2019-02-19T19:24:03.641Z,68.40
2019-02-19T19:26:33.070Z,68.30
2019-02-19T19:29:02.513Z,68.40
2019-02-19T19:31:33.901Z,68.60
2019-02-19T19:34:03.059Z,69.50
2019-02-19T19:36:32.518Z,69.20
2019-02-19T19:39:01.948Z,69.50
2019-02-19T19:41:31.376Z,69.60
2019-02-19T19:44:00.780Z,69.90
2019-02-19T19:46:30.230Z,70.00
2019-02-19T19:48:59.645Z,70.10
2019-02-19T19:51:29.072Z,70.10
2019-02-19T19:53:58.565Z,70.90
2019-02-19T19:56:27.943Z,70.30
2019-02-19T19:58:57.406Z,70.40
2019-02-19T20:01:26.814Z,70.50
2019-02-19T20:03:56.242Z,70.70
2019-02-19T20:06:25.677Z,70.80
2019-02-19T20:08:55.079Z,70.90
2019-02-19T20:11:24.477Z,71.00
2019-02-19T20:13:53.871Z,71.10
2019-02-19T20:16:23.322Z,71.20
2019-02-19T20:18:52.716Z,71.40
2019-02-19T20:21:26.659Z,71.50
2019-02-19T20:23:53.161Z,71.50
2019-02-19T20:26:22.603Z,71.60
2019-02-19T20:28:52.070Z,71.60
2019-02-19T20:31:21.461Z,71.70
2019-02-19T20:33:50.848Z,71.70
2019-02-19T20:36:20.260Z,71.70
2019-02-19T20:38:49.639Z,71.80
2019-02-19T20:41:19.407Z,71.70
2019-02-19T20:43:48.795Z,71.70
2019-02-19T20:46:18.175Z,71.80
2019-02-19T20:48:47.600Z,71.90
2019-02-19T20:51:16.981Z,71.90
2019-02-19T20:53:46.347Z,72.10
2019-02-19T20:56:15.752Z,72.30
2019-02-19T20:58:45.177Z,72.50
2019-02-19T21:01:14.593Z,72.70
2019-02-19T21:03:44.201Z,72.70
2019-02-19T21:06:13.633Z,72.60
2019-02-19T21:08:43.048Z,72.60
2019-02-19T21:11:12.470Z,72.60
2019-02-19T21:13:42.228Z,72.60
2019-02-19T21:16:11.621Z,72.80
2019-02-19T21:18:41.051Z,72.80
2019-02-19T21:21:10.456Z,72.90
2019-02-19T21:23:39.827Z,73.00
2019-02-19T21:26:09.244Z,73.10
2019-02-19T21:28:38.627Z,73.20
2019-02-19T21:31:08.015Z,73.20
2019-02-19T21:33:37.420Z,73.30
2019-02-19T21:36:06.823Z,73.20
2019-02-19T21:38:36.239Z,73.40
2019-02-19T21:41:07.638Z,73.60
2019-02-19T21:43:36.658Z,73.80
2019-02-19T21:46:06.070Z,73.90
2019-02-19T21:48:35.445Z,74.00
2019-02-19T21:51:04.851Z,74.30
2019-02-19T21:53:34.231Z,74.50
2019-02-19T21:56:03.607Z,74.70
2019-02-19T21:58:33.321Z,74.70
2019-02-19T22:01:02.699Z,74.90
2019-02-19T22:03:32.129Z,75.00
2019-02-19T22:06:01.539Z,75.10
2019-02-19T22:08:30.958Z,75.30
2019-02-19T22:11:00.351Z,75.30
2019-02-19T22:13:29.727Z,75.30
2019-02-19T22:15:59.182Z,75.20
2019-02-19T22:18:28.796Z,75.20
2019-02-19T22:21:12.300Z,75.10
2019-02-19T22:23:41.673Z,75.00
2019-02-19T22:26:11.117Z,74.90
2019-02-19T22:28:40.544Z,74.80
2019-02-19T22:31:09.937Z,74.80
2019-02-19T22:33:39.355Z,74.70
2019-02-19T22:36:08.727Z,74.80
2019-02-19T22:38:38.123Z,74.80
2019-02-19T22:41:07.802Z,75.00
2019-02-19T22:43:37.456Z,75.00
2019-02-19T22:46:06.889Z,75.10
2019-02-19T22:48:36.280Z,75.20
2019-02-19T22:51:05.699Z,75.20
2019-02-19T22:53:59.824Z,75.40
2019-02-19T22:56:35.384Z,75.60
2019-02-19T22:59:04.779Z,75.60
2019-02-19T23:01:47.127Z,75.70
2019-02-19T23:04:16.521Z,75.60
2019-02-19T23:06:45.908Z,75.60
2019-02-19T23:09:15.303Z,75.70
2019-02-19T23:11:44.682Z,75.80
2019-02-19T23:14:14.102Z,75.90
2019-02-19T23:16:43.487Z,76.00
2019-02-19T23:19:13.030Z,76.10
2019-02-19T23:21:42.438Z,76.20
2019-02-19T23:24:11.816Z,76.30
2019-02-19T23:26:41.556Z,76.30
2019-02-19T23:29:10.989Z,76.50
2019-02-19T23:31:40.381Z,76.60
2019-02-19T23:34:09.802Z,76.70
2019-02-19T23:36:49.490Z,76.80
2019-02-19T23:39:18.925Z,76.90
2019-02-19T23:41:48.307Z,76.90
2019-02-19T23:44:17.835Z,77.00
2019-02-19T23:46:47.271Z,77.00
2019-02-19T23:49:16.728Z,77.00
2019-02-19T23:51:46.101Z,77.00
2019-02-19T23:54:16.010Z,77.20
2019-02-19T23:56:45.388Z,77.30
2019-02-19T23:59:14.775Z,77.30
